עמוד ראשי
METAR-TAF:

METAR-TAF

שדות תעופה :

קוצ'במבה, בוליביה

קו רוחב: 17-25S, קו אורך: 066-11W, גובה: 2548מטר

תצפית מזג אוויר נוכחית

הדו"ח נערך לפני 1 שעות ו 0דקות, בשעה 00:00 UTC
רוח 4קשר מכיוון דרום/דרום-מזרח
טמפרטורת 19 צלסיוס
לחות 37%
לחץ 1021 hPa
ראות 10 קילומטר או יותר

METAR: SLCB 210000Z 16004KT 9999 NSC 19/04 Q1021

זמן: 21:00 (01:00 UTC)

תחזית

הדו"ח נערך לפני 3 שעות ו 0דקות, בשעה 22:00 UTC
תחזית בתוקף מ 21 ב 00 UTC עד 21 ב 24 UTC
רוח 10קשר מכיוון מערב/דרום-מערב
ראות 10 קילומטר או יותר
יעשה מ
21 ב 01 UTC עד 21 ב 03 UTC
רוח קשר מכיוון צפון
יעשה מ
21 ב 18 UTC עד 21 ב 20 UTC
רוח 10קשר מכיוון צפון-מערב

TAF: SLCB 202200Z 2100/2124 24010KT 9999 NSC TX31/2119Z TN07/2110Z BECMG 2101/2103 00000KT BECMG 2118/2120 32010KT

תצפיות ותחזיות מזג אוויר לגבי יותר מ- 4,000 שדות תעופה ברחבי העולם. דוחות METAR ו- TAF.

התחנות הזמינות מסומנות בנקודות צהובות ואדומות על גבי המפה.

העבר את העכבר לנקודה הצבעונית על מנת לראות את שם התחנה.

לאחר מכן, לחץ כדי לראות את תוכן ואת תחזיות מזג האוויר.

כדי לשנות את המפה: לחץ על הכפתורים הירוקים עם הפלוס השחור כדי להתקרב; על הכפתור הירוק עם המקף כדי להתרחק; או בחיצים הירוקים למפות סמוכות.


METAR-TAF: